Pb Newjersey #2 — WAS8517 — position and weather

sailwx.info

Track history (hours):
 
Tides and Currents Weather Stations Pressure Air Temp Water Temp Dewpoint Dewpoint Depression Visibility Wind Speed Wind Dir Waves Ship Positions

Pb Newjersey #2

Last reported at 2017-Oct-17 22:56 UTC. Time now 2017-Oct-18 00:20 UTC.
Position N 40°27' W 073°50'.

Length 42 m.

Type: Pilot. MMSI: 367008110.

Date/timePositionNaut miles runAvg speedWind from/ knotsBaromVisibWave heightAir tempDewpointWater temp
2017-Oct-17 22:56N 40°27' W 073°50'0 0.1
2017-Oct-17 22:28N 40°27' W 073°50'0 0.9
2017-Oct-17 22:00N 40°27' W 073°49'1 0.7
2017-Oct-17 21:13N 40°27' W 073°49'0 0.2
2017-Oct-17 18:58N 40°26' W 073°49'2 2.8
2017-Oct-17 18:22N 40°27' W 073°50'0 0.4
2017-Oct-17 18:00N 40°27' W 073°50'1 0.4
2017-Oct-17 15:42N 40°27' W 073°49'1 4.2
2017-Oct-17 15:28N 40°27' W 073°50'0 0.9
2017-Oct-17 14:59N 40°27' W 073°50'0 0.2
2017-Oct-17 13:17N 40°27' W 073°50'0 0.1
2017-Oct-17 11:32N 40°27' W 073°50'0 0.8
2017-Oct-17 11:17N 40°27' W 073°50'0 1.5
2017-Oct-17 11:00N 40°27' W 073°50'0 0.3
2017-Oct-17 10:13N 40°27' W 073°50'0 0.5
2017-Oct-17 10:00N 40°27' W 073°50'0 0.2
2017-Oct-17 09:29N 40°27' W 073°50'1 0.3
2017-Oct-17 05:36N 40°28' W 073°49'1 1.8
2017-Oct-17 05:15N 40°27' W 073°50'1 2.7
2017-Oct-17 05:00N 40°27' W 073°50'0 0.7
2017-Oct-17 04:30N 40°27' W 073°50'1 0.4
2017-Oct-17 03:12N 40°27' W 073°50'1 5.4
2017-Oct-17 03:00N 40°27' W 073°49'1 0.9
2017-Oct-17 02:06N 40°27' W 073°49'0 2.5
2017-Oct-17 01:58N 40°27' W 073°49'1 0.8
2017-Oct-17 01:17N 40°27' W 073°50'0 0.2
2017-Oct-16 23:17N 40°27' W 073°50'0 0.3
2017-Oct-16 22:59N 40°27' W 073°50'0 0.5
2017-Oct-16 22:24N 40°27' W 073°51'2 1.7
2017-Oct-16 21:22N 40°26' W 073°48'0 0.7
2017-Oct-16 21:00N 40°26' W 073°49'0 0.2
2017-Oct-16 20:24N 40°27' W 073°49'1 0.6
2017-Oct-16 19:00N 40°27' W 073°49'0 0.0
2017-Oct-16 16:23N 40°27' W 073°50'1 0.8
2017-Oct-16 15:38N 40°27' W 073°49'1 4.6
2017-Oct-16 15:20N 40°28' W 073°50'1 1.4
2017-Oct-16 14:59N 40°28' W 073°51'1 1.2
2017-Oct-16 14:30N 40°28' W 073°52'0 0.2
2017-Oct-16 13:29N 40°28' W 073°52'3 3.4
2017-Oct-16 12:38N 40°26' W 073°49'0 1.0
2017-Oct-16 12:27N 40°27' W 073°49'2 1.1
2017-Oct-16 10:50N 40°27' W 073°51'1 0.4
2017-Oct-16 07:48N 40°27' W 073°49'1 2.4
2017-Oct-16 07:19N 40°26' W 073°48'0 0.4
2017-Oct-16 06:27N 40°26' W 073°48'0 0.6
2017-Oct-16 05:52N 40°26' W 073°49'0 0.3
2017-Oct-16 05:30N 40°26' W 073°48'1 1.8
2017-Oct-16 04:59N 40°27' W 073°49'1 1.3
2017-Oct-16 04:19N 40°27' W 073°50'2 6.5
2017-Oct-16 04:00N 40°28' W 073°52'2 3.5
2017-Oct-16 03:29N 40°27' W 073°51'1 1.3
2017-Oct-16 02:54N 40°26' W 073°50'1 2.6
2017-Oct-16 02:26N 40°26' W 073°49'0 0.4
2017-Oct-16 01:59N 40°26' W 073°48'1 1.3
2017-Oct-16 01:09N 40°27' W 073°49'0 0.8
2017-Oct-16 00:44N 40°27' W 073°49'0 1.1
2017-Oct-16 00:30N 40°27' W 073°50'0 0.5
2017-Oct-15 23:56N 40°26' W 073°50'1 1.1
2017-Oct-15 23:20N 40°27' W 073°49'1 1.8
2017-Oct-15 22:53N 40°27' W 073°50'1 2.4
2017-Oct-15 22:26N 40°28' W 073°50'0 0.7
2017-Oct-15 22:00N 40°28' W 073°50'0 0.8
2017-Oct-15 21:30N 40°27' W 073°50'0 0.9
2017-Oct-15 21:00N 40°27' W 073°50'0 0.2
2017-Oct-15 19:20N 40°27' W 073°50'0 0.2
2017-Oct-15 18:11N 40°27' W 073°50'0 0.3
2017-Oct-15 17:46N 40°27' W 073°50'2 5.5
2017-Oct-15 17:29N 40°28' W 073°49'1 0.9
2017-Oct-15 16:49N 40°28' W 073°49'0 0.9
2017-Oct-15 16:29N 40°28' W 073°49'1 0.9
2017-Oct-15 15:56N 40°27' W 073°50'2 3.0
2017-Oct-15 15:19N 40°26' W 073°48'1 3.1
2017-Oct-15 14:51N 40°27' W 073°48'0 0.6
2017-Oct-15 13:58N 40°27' W 073°49'0 0.7
2017-Oct-15 13:29N 40°27' W 073°49'1 2.2
2017-Oct-15 13:00N 40°27' W 073°50'0 0.5
2017-Oct-15 12:30N 40°27' W 073°50'0 0.6
2017-Oct-15 11:59N 40°27' W 073°50'0 0.5
2017-Oct-15 11:29N 40°27' W 073°50'0 0.4
2017-Oct-15 10:52N 40°27' W 073°50'1 3.7
2017-Oct-15 10:30N 40°28' W 073°50'2 1.8
2017-Oct-15 09:21N 40°27' W 073°48'0 0.3
2017-Oct-15 08:40N 40°26' W 073°48'0 1.8
2017-Oct-15 08:28N 40°26' W 073°48'0 0.1
2017-Oct-15 07:58N 40°26' W 073°49'0 0.2
2017-Oct-15 07:26N 40°26' W 073°48'0 0.8
2017-Oct-15 07:00N 40°26' W 073°48'2 4.0
2017-Oct-15 06:29N 40°27' W 073°51'0 0.4
2017-Oct-15 05:57N 40°27' W 073°50'0 0.7
2017-Oct-15 05:30N 40°27' W 073°51'1 2.1
2017-Oct-15 05:00N 40°27' W 073°52'0 0.7
2017-Oct-15 04:30N 40°27' W 073°52'0 0.9
2017-Oct-15 04:00N 40°28' W 073°52'0 1.0
2017-Oct-15 03:30N 40°28' W 073°53'0 0.7
2017-Oct-15 02:58N 40°29' W 073°53'0 0.6
2017-Oct-15 02:31N 40°28' W 073°53'3 4.9
2017-Oct-15 01:54N 40°27' W 073°49'0 0.2
2017-Oct-15 01:30N 40°27' W 073°49'0 0.4
2017-Oct-15 00:58N 40°27' W 073°50'0 0.2
2017-Oct-15 00:30N 40°27' W 073°50'0 0.0
2017-Oct-14 23:56N 40°27' W 073°50'0 0.7
2017-Oct-14 23:30N 40°27' W 073°50'0 0.1
2017-Oct-14 23:00N 40°27' W 073°50'0 0.5
2017-Oct-14 22:30N 40°27' W 073°50'0 0.7
2017-Oct-14 21:58N 40°27' W 073°50'0 0.5
2017-Oct-14 21:30N 40°27' W 073°51'0 0.4
2017-Oct-14 20:35N 40°26' W 073°50'110.8
2017-Oct-14 20:30N 40°27' W 073°50'1 1.2
2017-Oct-14 19:57N 40°28' W 073°51'0 0.3
2017-Oct-14 19:29N 40°28' W 073°50'0 0.9
2017-Oct-14 18:58N 40°28' W 073°50'1 0.8
2017-Oct-14 18:16N 40°27' W 073°50'0 0.8
2017-Oct-14 18:01N 40°27' W 073°50'0 0.5
2017-Oct-14 17:30N 40°27' W 073°49'1 1.7
2017-Oct-14 16:51N 40°26' W 073°48'1 2.0
2017-Oct-14 16:29N 40°27' W 073°49'0 0.8
2017-Oct-14 16:00N 40°27' W 073°48'1 2.2
2017-Oct-14 15:25N 40°26' W 073°50'0 0.6
2017-Oct-14 15:00N 40°26' W 073°50'0 0.6
2017-Oct-14 14:19N 40°27' W 073°49'0 0.7
2017-Oct-14 13:47N 40°27' W 073°49'0 0.7
2017-Oct-14 13:29N 40°27' W 073°48'3 5.4
2017-Oct-14 12:59N 40°28' W 073°52'3 1.5
2017-Oct-14 11:07N 40°27' W 073°48'1 2.4
2017-Oct-14 10:54N 40°27' W 073°49'3 6.8
2017-Oct-14 10:30N 40°28' W 073°52'1 3.0
2017-Oct-14 10:00N 40°27' W 073°51'1 1.5
2017-Oct-14 09:26N 40°27' W 073°50'1 0.2
2017-Oct-14 07:07N 40°26' W 073°49'1 3.0
2017-Oct-14 06:46N 40°27' W 073°50'1 1.3
2017-Oct-14 06:22N 40°27' W 073°50'1 0.3
2017-Oct-14 04:09N 40°27' W 073°50'2 5.8
2017-Oct-14 03:52N 40°28' W 073°52'0 0.2
2017-Oct-14 03:28N 40°28' W 073°52'1 2.2
2017-Oct-14 02:48N 40°28' W 073°50'1 1.9
2017-Oct-14 02:10N 40°27' W 073°50'1 1.9
2017-Oct-14 01:50N 40°27' W 073°50'2 5.2
2017-Oct-14 01:28N 40°27' W 073°52'2 1.2
2017-Oct-14 00:04N 40°27' W 073°50'1 0.4
2017-Oct-13 21:20N 40°27' W 073°51'1 0.1
2017-Oct-13 15:53N 40°27' W 073°51'1 1.3
2017-Oct-13 15:26N 40°27' W 073°51'1 1.7
2017-Oct-13 15:00N 40°27' W 073°50'1 1.5
2017-Oct-13 14:12N 40°27' W 073°48'0 1.3
2017-Oct-13 13:52N 40°26' W 073°49'0 0.1
2017-Oct-13 13:17N 40°27' W 073°49'1 0.7
2017-Oct-13 12:04N 40°26' W 073°48'1 8.6
2017-Oct-13 11:59N 40°27' W 073°48'1 1.0
2017-Oct-13 11:25N 40°26' W 073°48'0 0.5
2017-Oct-13 10:53N 40°26' W 073°47'2 4.3
2017-Oct-13 10:30N 40°26' W 073°49'1 0.9
2017-Oct-13 09:57N 40°26' W 073°49'1 2.0
2017-Oct-13 09:30N 40°26' W 073°50'1 1.7
2017-Oct-13 08:53N 40°26' W 073°49'0 0.1
2017-Oct-13 06:32N 40°26' W 073°49'0 1.9
2017-Oct-13 06:21N 40°26' W 073°49'1 0.8
2017-Oct-13 05:11N 40°26' W 073°51'0 1.3
2017-Oct-13 04:59N 40°27' W 073°51'2 2.7
2017-Oct-13 04:25N 40°27' W 073°49'0 0.5
2017-Oct-13 03:57N 40°27' W 073°49'1 1.7
2017-Oct-13 03:28N 40°27' W 073°48'1 2.1
2017-Oct-13 03:00N 40°27' W 073°49'0 0.2
2017-Oct-13 02:29N 40°27' W 073°49'1 0.8
2017-Oct-13 01:44N 40°27' W 073°50'0 0.1
2017-Oct-13 00:14N 40°27' W 073°50'0 1.6
2017-Oct-12 23:59N 40°27' W 073°49'1 1.9
2017-Oct-12 23:27N 40°27' W 073°50'1 0.4
2017-Oct-12 19:42N 40°26' W 073°49'0 0.3
2017-Oct-12 18:40N 40°26' W 073°49'2 4.4
2017-Oct-12 18:12N 40°26' W 073°51'1 2.2
2017-Oct-12 17:53N 40°26' W 073°50'1 2.5
2017-Oct-12 17:29N 40°26' W 073°49'1 1.0
2017-Oct-12 16:41N 40°27' W 073°50'1 4.3
2017-Oct-12 16:29N 40°27' W 073°51'0 0.9
2017-Oct-12 15:57N 40°27' W 073°51'1 0.6
2017-Oct-12 14:59N 40°27' W 073°51'1 2.1
2017-Oct-12 14:29N 40°27' W 073°50'1 2.1
2017-Oct-12 13:56N 40°27' W 073°48'2 0.6
2017-Oct-12 10:44N 40°27' W 073°51'0 1.5
2017-Oct-12 10:29N 40°26' W 073°50'1 0.1
2017-Oct-12 04:00N 40°27' W 073°49'0 0.4
2017-Oct-12 03:29N 40°27' W 073°49'2 2.5
2017-Oct-12 02:49N 40°27' W 073°51'1 0.9
2017-Oct-12 02:10N 40°27' W 073°51'0 0.4
2017-Oct-12 02:01N 40°27' W 073°50'1 1.1
2017-Oct-12 01:30N 40°27' W 073°50'1 0.5
2017-Oct-12 00:22N 40°27' W 073°50'1 1.5
2017-Oct-12 00:00N 40°27' W 073°50'0 0.6
2017-Oct-11 23:27N 40°27' W 073°49'1 1.0
2017-Oct-11 22:35N 40°27' W 073°50'0 6.7
2017-Oct-11 22:30N 40°27' W 073°50'0 0.5
2017-Oct-11 21:53N 40°27' W 073°50'0 0.1
2017-Oct-11 20:25N 40°27' W 073°50'1 1.7
2017-Oct-11 19:57N 40°27' W 073°51'0 0.1
2017-Oct-11 19:26N 40°27' W 073°51'0 0.7
2017-Oct-11 18:58N 40°27' W 073°51'1 1.0
2017-Oct-11 18:29N 40°27' W 073°50'2 1.6
2017-Oct-11 17:30N 40°27' W 073°48'1 0.9
2017-Oct-11 16:47N 40°27' W 073°49'0 0.0
2017-Oct-10 23:59N 40°27' W 073°49'1 0.8
2017-Oct-10 23:08N 40°26' W 073°48'2 0.3
2017-Oct-10 16:40N 40°28' W 073°50'0 2.0
2017-Oct-10 16:29N 40°28' W 073°50'0 0.1
2017-Oct-10 11:48N 40°27' W 073°49'0 0.2
2017-Oct-10 11:29N 40°27' W 073°50'0 0.7
2017-Oct-10 10:58N 40°27' W 073°50'1 2.9
2017-Oct-10 10:30N 40°26' W 073°49'0 0.5
2017-Oct-10 10:00N 40°26' W 073°49'1 2.3
2017-Oct-10 09:23N 40°27' W 073°50'1 2.2
2017-Oct-10 09:00N 40°27' W 073°49'1 0.4
2017-Oct-10 07:04N 40°27' W 073°48'0 1.0
2017-Oct-10 06:52N 40°27' W 073°48'1 0.7
2017-Oct-10 04:39N 40°27' W 073°50'0 0.3
2017-Oct-10 03:42N 40°27' W 073°50'4 6.3
2017-Oct-10 03:05N 40°29' W 073°55'1 6.2
2017-Oct-10 02:52N 40°30' W 073°56'2 5.6
2017-Oct-10 02:30N 40°31' W 073°59'3 5.5
2017-Oct-10 01:58N 40°29' W 073°55'6 0.9
2017-Oct-09 19:57N 40°26' W 073°49'2 2.1
2017-Oct-09 19:07N 40°28' W 073°50'0 1.6
2017-Oct-09 19:00N 40°28' W 073°50'0 0.1
2017-Oct-09 14:18N 40°27' W 073°50'1 1.0
2017-Oct-09 13:22N 40°26' W 073°50'1 0.7
2017-Oct-09 11:50N 40°26' W 073°49'1 2.0
2017-Oct-09 11:17N 40°26' W 073°48'2 4.4
2017-Oct-09 10:48N 40°28' W 073°50'2 3.3
2017-Oct-09 10:15N 40°26' W 073°48'0 0.6
2017-Oct-09 09:46N 40°27' W 073°49'1 2.1
2017-Oct-09 09:29N 40°27' W 073°48'0 0.5
2017-Oct-09 08:53N 40°26' W 073°48'4 0.6
2017-Oct-09 02:42N 40°29' W 073°52'1 3.8
2017-Oct-09 02:30N 40°29' W 073°53'4 1.2
2017-Oct-08 23:22N 40°26' W 073°49'2 3.5
2017-Oct-08 22:56N 40°27' W 073°48'1 2.2
2017-Oct-08 22:27N 40°27' W 073°49'1 0.9
2017-Oct-08 21:54N 40°27' W 073°50'0 0.8
2017-Oct-08 21:29N 40°27' W 073°50'1 1.2
2017-Oct-08 20:57N 40°27' W 073°49'1 1.0
2017-Oct-08 20:26N 40°26' W 073°50'0 1.0
2017-Oct-08 20:00N 40°26' W 073°50'1 0.1
2017-Oct-08 11:38N 40°27' W 073°49'0 1.5
2017-Oct-08 11:21N 40°26' W 073°49'1 2.7
2017-Oct-08 10:56N 40°27' W 073°50'0 0.7
2017-Oct-08 10:30N 40°27' W 073°50'2 0.8
2017-Oct-08 08:11N 40°28' W 073°48'1 5.6
2017-Oct-08 07:57N 40°29' W 073°47'2 0.8
2017-Oct-08 04:59N 40°27' W 073°50'1 0.7
2017-Oct-08 03:11N 40°26' W 073°50'1 7.3
2017-Oct-08 02:59N 40°27' W 073°51'1 3.0
2017-Oct-08 02:30N 40°28' W 073°52'2 4.2
2017-Oct-08 02:00N 40°27' W 073°50'0 0.3
2017-Oct-08 01:28N 40°27' W 073°50'0 0.7
2017-Oct-08 00:58N 40°27' W 073°49'0 0.8
2017-Oct-08 00:30N 40°27' W 073°50'1 1.7
2017-Oct-07 23:51N 40°26' W 073°50'0 0.9
2017-Oct-07 23:24N 40°26' W 073°49'  
Track history (hours):
 
Tides and Currents Weather Stations Pressure Air Temp Water Temp Dewpoint Dewpoint Depression Visibility Wind Speed Wind Dir Waves Ship Positions

Pb Newjersey #2

Last reported at 2017-Oct-17 22:56 UTC. Time now 2017-Oct-18 00:20 UTC.
Position N 40°27' W 073°50'.

Length 42 m.

Type: Pilot. MMSI: 367008110.

Date/timePositionNaut miles runAvg speedWind from/ knotsBaromVisibWave heightAir tempDewpointWater temp
2017-Oct-17 22:56N 40°27' W 073°50'0 0.1
2017-Oct-17 22:28N 40°27' W 073°50'0 0.9
2017-Oct-17 22:00N 40°27' W 073°49'1 0.7
2017-Oct-17 21:13N 40°27' W 073°49'0 0.2
2017-Oct-17 18:58N 40°26' W 073°49'2 2.8
2017-Oct-17 18:22N 40°27' W 073°50'0 0.4
2017-Oct-17 18:00N 40°27' W 073°50'1 0.4
2017-Oct-17 15:42N 40°27' W 073°49'1 4.2
2017-Oct-17 15:28N 40°27' W 073°50'0 0.9
2017-Oct-17 14:59N 40°27' W 073°50'0 0.2
2017-Oct-17 13:17N 40°27' W 073°50'0 0.1
2017-Oct-17 11:32N 40°27' W 073°50'0 0.8
2017-Oct-17 11:17N 40°27' W 073°50'0 1.5
2017-Oct-17 11:00N 40°27' W 073°50'0 0.3
2017-Oct-17 10:13N 40°27' W 073°50'0 0.5
2017-Oct-17 10:00N 40°27' W 073°50'0 0.2
2017-Oct-17 09:29N 40°27' W 073°50'1 0.3
2017-Oct-17 05:36N 40°28' W 073°49'1 1.8
2017-Oct-17 05:15N 40°27' W 073°50'1 2.7
2017-Oct-17 05:00N 40°27' W 073°50'0 0.7
2017-Oct-17 04:30N 40°27' W 073°50'1 0.4
2017-Oct-17 03:12N 40°27' W 073°50'1 5.4
2017-Oct-17 03:00N 40°27' W 073°49'1 0.9
2017-Oct-17 02:06N 40°27' W 073°49'0 2.5
2017-Oct-17 01:58N 40°27' W 073°49'1 0.8
2017-Oct-17 01:17N 40°27' W 073°50'0 0.2
2017-Oct-16 23:17N 40°27' W 073°50'0 0.3
2017-Oct-16 22:59N 40°27' W 073°50'0 0.5
2017-Oct-16 22:24N 40°27' W 073°51'2 1.7
2017-Oct-16 21:22N 40°26' W 073°48'0 0.7
2017-Oct-16 21:00N 40°26' W 073°49'0 0.2
2017-Oct-16 20:24N 40°27' W 073°49'1 0.6
2017-Oct-16 19:00N 40°27' W 073°49'0 0.0
2017-Oct-16 16:23N 40°27' W 073°50'1 0.8
2017-Oct-16 15:38N 40°27' W 073°49'1 4.6
2017-Oct-16 15:20N 40°28' W 073°50'1 1.4
2017-Oct-16 14:59N 40°28' W 073°51'1 1.2
2017-Oct-16 14:30N 40°28' W 073°52'0 0.2
2017-Oct-16 13:29N 40°28' W 073°52'3 3.4
2017-Oct-16 12:38N 40°26' W 073°49'0 1.0
2017-Oct-16 12:27N 40°27' W 073°49'2 1.1
2017-Oct-16 10:50N 40°27' W 073°51'1 0.4
2017-Oct-16 07:48N 40°27' W 073°49'1 2.4
2017-Oct-16 07:19N 40°26' W 073°48'0 0.4
2017-Oct-16 06:27N 40°26' W 073°48'0 0.6
2017-Oct-16 05:52N 40°26' W 073°49'0 0.3
2017-Oct-16 05:30N 40°26' W 073°48'1 1.8
2017-Oct-16 04:59N 40°27' W 073°49'1 1.3
2017-Oct-16 04:19N 40°27' W 073°50'2 6.5
2017-Oct-16 04:00N 40°28' W 073°52'2 3.5
2017-Oct-16 03:29N 40°27' W 073°51'1 1.3
2017-Oct-16 02:54N 40°26' W 073°50'1 2.6
2017-Oct-16 02:26N 40°26' W 073°49'0 0.4
2017-Oct-16 01:59N 40°26' W 073°48'1 1.3
2017-Oct-16 01:09N 40°27' W 073°49'0 0.8
2017-Oct-16 00:44N 40°27' W 073°49'0 1.1
2017-Oct-16 00:30N 40°27' W 073°50'0 0.5
2017-Oct-15 23:56N 40°26' W 073°50'1 1.1
2017-Oct-15 23:20N 40°27' W 073°49'1 1.8
2017-Oct-15 22:53N 40°27' W 073°50'1 2.4
2017-Oct-15 22:26N 40°28' W 073°50'0 0.7
2017-Oct-15 22:00N 40°28' W 073°50'0 0.8
2017-Oct-15 21:30N 40°27' W 073°50'0 0.9
2017-Oct-15 21:00N 40°27' W 073°50'0 0.2
2017-Oct-15 19:20N 40°27' W 073°50'0 0.2
2017-Oct-15 18:11N 40°27' W 073°50'0 0.3
2017-Oct-15 17:46N 40°27' W 073°50'2 5.5
2017-Oct-15 17:29N 40°28' W 073°49'1 0.9
2017-Oct-15 16:49N 40°28' W 073°49'0 0.9
2017-Oct-15 16:29N 40°28' W 073°49'1 0.9
2017-Oct-15 15:56N 40°27' W 073°50'2 3.0
2017-Oct-15 15:19N 40°26' W 073°48'1 3.1
2017-Oct-15 14:51N 40°27' W 073°48'0 0.6
2017-Oct-15 13:58N 40°27' W 073°49'0 0.7
2017-Oct-15 13:29N 40°27' W 073°49'1 2.2
2017-Oct-15 13:00N 40°27' W 073°50'0 0.5
2017-Oct-15 12:30N 40°27' W 073°50'0 0.6
2017-Oct-15 11:59N 40°27' W 073°50'0 0.5
2017-Oct-15 11:29N 40°27' W 073°50'0 0.4
2017-Oct-15 10:52N 40°27' W 073°50'1 3.7
2017-Oct-15 10:30N 40°28' W 073°50'2 1.8
2017-Oct-15 09:21N 40°27' W 073°48'0 0.3
2017-Oct-15 08:40N 40°26' W 073°48'0 1.8
2017-Oct-15 08:28N 40°26' W 073°48'0 0.1
2017-Oct-15 07:58N 40°26' W 073°49'0 0.2
2017-Oct-15 07:26N 40°26' W 073°48'0 0.8
2017-Oct-15 07:00N 40°26' W 073°48'2 4.0
2017-Oct-15 06:29N 40°27' W 073°51'0 0.4
2017-Oct-15 05:57N 40°27' W 073°50'0 0.7
2017-Oct-15 05:30N 40°27' W 073°51'1 2.1
2017-Oct-15 05:00N 40°27' W 073°52'0 0.7
2017-Oct-15 04:30N 40°27' W 073°52'0 0.9
2017-Oct-15 04:00N 40°28' W 073°52'0 1.0
2017-Oct-15 03:30N 40°28' W 073°53'0 0.7
2017-Oct-15 02:58N 40°29' W 073°53'0 0.6
2017-Oct-15 02:31N 40°28' W 073°53'3 4.9
2017-Oct-15 01:54N 40°27' W 073°49'0 0.2
2017-Oct-15 01:30N 40°27' W 073°49'0 0.4
2017-Oct-15 00:58N 40°27' W 073°50'0 0.2
2017-Oct-15 00:30N 40°27' W 073°50'0 0.0
2017-Oct-14 23:56N 40°27' W 073°50'0 0.7
2017-Oct-14 23:30N 40°27' W 073°50'0 0.1
2017-Oct-14 23:00N 40°27' W 073°50'0 0.5
2017-Oct-14 22:30N 40°27' W 073°50'0 0.7
2017-Oct-14 21:58N 40°27' W 073°50'0 0.5
2017-Oct-14 21:30N 40°27' W 073°51'0 0.4
2017-Oct-14 20:35N 40°26' W 073°50'110.8
2017-Oct-14 20:30N 40°27' W 073°50'1 1.2
2017-Oct-14 19:57N 40°28' W 073°51'0 0.3
2017-Oct-14 19:29N 40°28' W 073°50'0 0.9
2017-Oct-14 18:58N 40°28' W 073°50'1 0.8
2017-Oct-14 18:16N 40°27' W 073°50'0 0.8
2017-Oct-14 18:01N 40°27' W 073°50'0 0.5
2017-Oct-14 17:30N 40°27' W 073°49'1 1.7
2017-Oct-14 16:51N 40°26' W 073°48'1 2.0
2017-Oct-14 16:29N 40°27' W 073°49'0 0.8
2017-Oct-14 16:00N 40°27' W 073°48'1 2.2
2017-Oct-14 15:25N 40°26' W 073°50'0 0.6
2017-Oct-14 15:00N 40°26' W 073°50'0 0.6
2017-Oct-14 14:19N 40°27' W 073°49'0 0.7
2017-Oct-14 13:47N 40°27' W 073°49'0 0.7
2017-Oct-14 13:29N 40°27' W 073°48'3 5.4
2017-Oct-14 12:59N 40°28' W 073°52'3 1.5
2017-Oct-14 11:07N 40°27' W 073°48'1 2.4
2017-Oct-14 10:54N 40°27' W 073°49'3 6.8
2017-Oct-14 10:30N 40°28' W 073°52'1 3.0
2017-Oct-14 10:00N 40°27' W 073°51'1 1.5
2017-Oct-14 09:26N 40°27' W 073°50'1 0.2
2017-Oct-14 07:07N 40°26' W 073°49'1 3.0
2017-Oct-14 06:46N 40°27' W 073°50'1 1.3
2017-Oct-14 06:22N 40°27' W 073°50'1 0.3
2017-Oct-14 04:09N 40°27' W 073°50'2 5.8
2017-Oct-14 03:52N 40°28' W 073°52'0 0.2
2017-Oct-14 03:28N 40°28' W 073°52'1 2.2
2017-Oct-14 02:48N 40°28' W 073°50'1 1.9
2017-Oct-14 02:10N 40°27' W 073°50'1 1.9
2017-Oct-14 01:50N 40°27' W 073°50'2 5.2
2017-Oct-14 01:28N 40°27' W 073°52'2 1.2
2017-Oct-14 00:04N 40°27' W 073°50'1 0.4
2017-Oct-13 21:20N 40°27' W 073°51'1 0.1
2017-Oct-13 15:53N 40°27' W 073°51'1 1.3
2017-Oct-13 15:26N 40°27' W 073°51'1 1.7
2017-Oct-13 15:00N 40°27' W 073°50'1 1.5
2017-Oct-13 14:12N 40°27' W 073°48'0 1.3
2017-Oct-13 13:52N 40°26' W 073°49'0 0.1
2017-Oct-13 13:17N 40°27' W 073°49'1 0.7
2017-Oct-13 12:04N 40°26' W 073°48'1 8.6
2017-Oct-13 11:59N 40°27' W 073°48'1 1.0
2017-Oct-13 11:25N 40°26' W 073°48'0 0.5
2017-Oct-13 10:53N 40°26' W 073°47'2 4.3
2017-Oct-13 10:30N 40°26' W 073°49'1 0.9
2017-Oct-13 09:57N 40°26' W 073°49'1 2.0
2017-Oct-13 09:30N 40°26' W 073°50'1 1.7
2017-Oct-13 08:53N 40°26' W 073°49'0 0.1
2017-Oct-13 06:32N 40°26' W 073°49'0 1.9
2017-Oct-13 06:21N 40°26' W 073°49'1 0.8
2017-Oct-13 05:11N 40°26' W 073°51'0 1.3
2017-Oct-13 04:59N 40°27' W 073°51'2 2.7
2017-Oct-13 04:25N 40°27' W 073°49'0 0.5
2017-Oct-13 03:57N 40°27' W 073°49'1 1.7
2017-Oct-13 03:28N 40°27' W 073°48'1 2.1
2017-Oct-13 03:00N 40°27' W 073°49'0 0.2
2017-Oct-13 02:29N 40°27' W 073°49'1 0.8
2017-Oct-13 01:44N 40°27' W 073°50'0 0.1
2017-Oct-13 00:14N 40°27' W 073°50'0 1.6
2017-Oct-12 23:59N 40°27' W 073°49'1 1.9
2017-Oct-12 23:27N 40°27' W 073°50'1 0.4
2017-Oct-12 19:42N 40°26' W 073°49'0 0.3
2017-Oct-12 18:40N 40°26' W 073°49'2 4.4
2017-Oct-12 18:12N 40°26' W 073°51'1 2.2
2017-Oct-12 17:53N 40°26' W 073°50'1 2.5
2017-Oct-12 17:29N 40°26' W 073°49'1 1.0
2017-Oct-12 16:41N 40°27' W 073°50'1 4.3
2017-Oct-12 16:29N 40°27' W 073°51'0 0.9
2017-Oct-12 15:57N 40°27' W 073°51'1 0.6
2017-Oct-12 14:59N 40°27' W 073°51'1 2.1
2017-Oct-12 14:29N 40°27' W 073°50'1 2.1
2017-Oct-12 13:56N 40°27' W 073°48'2 0.6
2017-Oct-12 10:44N 40°27' W 073°51'0 1.5
2017-Oct-12 10:29N 40°26' W 073°50'1 0.1
2017-Oct-12 04:00N 40°27' W 073°49'0 0.4
2017-Oct-12 03:29N 40°27' W 073°49'2 2.5
2017-Oct-12 02:49N 40°27' W 073°51'1 0.9
2017-Oct-12 02:10N 40°27' W 073°51'0 0.4
2017-Oct-12 02:01N 40°27' W 073°50'1 1.1
2017-Oct-12 01:30N 40°27' W 073°50'1 0.5
2017-Oct-12 00:22N 40°27' W 073°50'1 1.5
2017-Oct-12 00:00N 40°27' W 073°50'0 0.6
2017-Oct-11 23:27N 40°27' W 073°49'1 1.0
2017-Oct-11 22:35N 40°27' W 073°50'0 6.7
2017-Oct-11 22:30N 40°27' W 073°50'0 0.5
2017-Oct-11 21:53N 40°27' W 073°50'0 0.1
2017-Oct-11 20:25N 40°27' W 073°50'1 1.7
2017-Oct-11 19:57N 40°27' W 073°51'0 0.1
2017-Oct-11 19:26N 40°27' W 073°51'0 0.7
2017-Oct-11 18:58N 40°27' W 073°51'1 1.0
2017-Oct-11 18:29N 40°27' W 073°50'2 1.6
2017-Oct-11 17:30N 40°27' W 073°48'1 0.9
2017-Oct-11 16:47N 40°27' W 073°49'0 0.0
2017-Oct-10 23:59N 40°27' W 073°49'1 0.8
2017-Oct-10 23:08N 40°26' W 073°48'2 0.3
2017-Oct-10 16:40N 40°28' W 073°50'0 2.0
2017-Oct-10 16:29N 40°28' W 073°50'0 0.1
2017-Oct-10 11:48N 40°27' W 073°49'0 0.2
2017-Oct-10 11:29N 40°27' W 073°50'0 0.7
2017-Oct-10 10:58N 40°27' W 073°50'1 2.9
2017-Oct-10 10:30N 40°26' W 073°49'0 0.5
2017-Oct-10 10:00N 40°26' W 073°49'1 2.3
2017-Oct-10 09:23N 40°27' W 073°50'1 2.2
2017-Oct-10 09:00N 40°27' W 073°49'1 0.4
2017-Oct-10 07:04N 40°27' W 073°48'0 1.0
2017-Oct-10 06:52N 40°27' W 073°48'1 0.7
2017-Oct-10 04:39N 40°27' W 073°50'0 0.3
2017-Oct-10 03:42N 40°27' W 073°50'4 6.3
2017-Oct-10 03:05N 40°29' W 073°55'1 6.2
2017-Oct-10 02:52N 40°30' W 073°56'2 5.6
2017-Oct-10 02:30N 40°31' W 073°59'3 5.5
2017-Oct-10 01:58N 40°29' W 073°55'6 0.9
2017-Oct-09 19:57N 40°26' W 073°49'2 2.1
2017-Oct-09 19:07N 40°28' W 073°50'0 1.6
2017-Oct-09 19:00N 40°28' W 073°50'0 0.1
2017-Oct-09 14:18N 40°27' W 073°50'1 1.0
2017-Oct-09 13:22N 40°26' W 073°50'1 0.7
2017-Oct-09 11:50N 40°26' W 073°49'1 2.0
2017-Oct-09 11:17N 40°26' W 073°48'2 4.4
2017-Oct-09 10:48N 40°28' W 073°50'2 3.3
2017-Oct-09 10:15N 40°26' W 073°48'0 0.6
2017-Oct-09 09:46N 40°27' W 073°49'1 2.1
2017-Oct-09 09:29N 40°27' W 073°48'0 0.5
2017-Oct-09 08:53N 40°26' W 073°48'4 0.6
2017-Oct-09 02:42N 40°29' W 073°52'1 3.8
2017-Oct-09 02:30N 40°29' W 073°53'4 1.2
2017-Oct-08 23:22N 40°26' W 073°49'2 3.5
2017-Oct-08 22:56N 40°27' W 073°48'1 2.2
2017-Oct-08 22:27N 40°27' W 073°49'1 0.9
2017-Oct-08 21:54N 40°27' W 073°50'0 0.8
2017-Oct-08 21:29N 40°27' W 073°50'1 1.2
2017-Oct-08 20:57N 40°27' W 073°49'1 1.0
2017-Oct-08 20:26N 40°26' W 073°50'0 1.0
2017-Oct-08 20:00N 40°26' W 073°50'1 0.1
2017-Oct-08 11:38N 40°27' W 073°49'0 1.5
2017-Oct-08 11:21N 40°26' W 073°49'1 2.7
2017-Oct-08 10:56N 40°27' W 073°50'0 0.7
2017-Oct-08 10:30N 40°27' W 073°50'2 0.8
2017-Oct-08 08:11N 40°28' W 073°48'1 5.6
2017-Oct-08 07:57N 40°29' W 073°47'2 0.8
2017-Oct-08 04:59N 40°27' W 073°50'1 0.7
2017-Oct-08 03:11N 40°26' W 073°50'1 7.3
2017-Oct-08 02:59N 40°27' W 073°51'1 3.0
2017-Oct-08 02:30N 40°28' W 073°52'2 4.2
2017-Oct-08 02:00N 40°27' W 073°50'0 0.3
2017-Oct-08 01:28N 40°27' W 073°50'0 0.7
2017-Oct-08 00:58N 40°27' W 073°49'0 0.8
2017-Oct-08 00:30N 40°27' W 073°50'1 1.7
2017-Oct-07 23:51N 40°26' W 073°50'0 0.9
2017-Oct-07 23:24N 40°26' W 073°49'  

Dump ship's entire track history